sensor_id;sensor_type;location;lat;lon;timestamp;P1;durP1;ratioP1;P2;durP2;ratioP2
70406;SDS011;57821;52.202;0.154;2023-02-28T00:02:28;18.15;;;7.45;;
70406;SDS011;57821;52.202;0.154;2023-02-28T00:04:55;21.85;;;7.20;;
70406;SDS011;57821;52.202;0.154;2023-02-28T00:07:22;18.00;;;6.50;;
70406;SDS011;57821;52.202;0.154;2023-02-28T00:09:48;18.52;;;7.45;;
70406;SDS011;57821;52.202;0.154;2023-02-28T00:12:15;14.18;;;6.63;;
70406;SDS011;57821;52.202;0.154;2023-02-28T00:14:41;19.60;;;7.07;;
70406;SDS011;57821;52.202;0.154;2023-02-28T00:17:08;20.00;;;7.82;;
70406;SDS011;57821;52.202;0.154;2023-02-28T00:19:34;14.88;;;7.88;;
70406;SDS011;57821;52.202;0.154;2023-02-28T00:22:01;17.15;;;6.80;;
70406;SDS011;57821;52.202;0.154;2023-02-28T00:24:27;13.77;;;6.68;;
70406;SDS011;57821;52.202;0.154;2023-02-28T00:26:54;20.75;;;6.68;;
70406;SDS011;57821;52.202;0.154;2023-02-28T00:29:21;19.58;;;6.43;;
70406;SDS011;57821;52.202;0.154;2023-02-28T00:31:47;19.27;;;8.10;;
70406;SDS011;57821;52.202;0.154;2023-02-28T00:34:14;25.67;;;6.35;;
70406;SDS011;57821;52.202;0.154;2023-02-28T00:36:40;12.98;;;6.00;;
70406;SDS011;57821;52.202;0.154;2023-02-28T00:39:07;21.38;;;6.22;;
70406;SDS011;57821;52.202;0.154;2023-02-28T00:41:33;16.98;;;5.75;;
70406;SDS011;57821;52.202;0.154;2023-02-28T00:44:00;21.27;;;6.30;;
70406;SDS011;57821;52.202;0.154;2023-02-28T00:46:27;14.68;;;5.28;;
70406;SDS011;57821;52.202;0.154;2023-02-28T00:48:53;16.67;;;5.65;;
70406;SDS011;57821;52.202;0.154;2023-02-28T00:51:20;15.73;;;5.82;;
70406;SDS011;57821;52.202;0.154;2023-02-28T00:53:47;16.95;;;6.20;;
70406;SDS011;57821;52.202;0.154;2023-02-28T00:56:15;14.60;;;5.60;;
70406;SDS011;57821;52.202;0.154;2023-02-28T00:58:42;11.05;;;5.20;;
70406;SDS011;57821;52.202;0.154;2023-02-28T01:01:09;13.07;;;5.97;;
70406;SDS011;57821;52.202;0.154;2023-02-28T01:03:36;15.00;;;5.22;;
70406;SDS011;57821;52.202;0.154;2023-02-28T01:06:03;16.83;;;5.10;;
70406;SDS011;57821;52.202;0.154;2023-02-28T01:08:30;13.43;;;5.65;;
70406;SDS011;57821;52.202;0.154;2023-02-28T01:10:57;18.42;;;5.35;;
70406;SDS011;57821;52.202;0.154;2023-02-28T01:13:24;13.82;;;6.03;;
70406;SDS011;57821;52.202;0.154;2023-02-28T01:15:51;19.08;;;5.93;;
70406;SDS011;57821;52.202;0.154;2023-02-28T01:18:21;13.30;;;5.55;;
70406;SDS011;57821;52.202;0.154;2023-02-28T01:20:48;16.70;;;5.53;;
70406;SDS011;57821;52.202;0.154;2023-02-28T01:23:15;18.75;;;5.88;;
70406;SDS011;57821;52.202;0.154;2023-02-28T01:25:42;14.35;;;6.15;;
70406;SDS011;57821;52.202;0.154;2023-02-28T01:28:08;16.77;;;6.03;;
70406;SDS011;57821;52.202;0.154;2023-02-28T01:30:35;16.90;;;6.07;;
70406;SDS011;57821;52.202;0.154;2023-02-28T01:33:01;17.00;;;5.53;;
70406;SDS011;57821;52.202;0.154;2023-02-28T01:35:31;18.20;;;6.07;;
70406;SDS011;57821;52.202;0.154;2023-02-28T01:37:59;16.00;;;6.10;;
70406;SDS011;57821;52.202;0.154;2023-02-28T01:40:37;18.90;;;6.45;;
70406;SDS011;57821;52.202;0.154;2023-02-28T01:43:07;17.40;;;5.85;;
70406;SDS011;57821;52.202;0.154;2023-02-28T01:48:12;18.92;;;5.97;;
70406;SDS011;57821;52.202;0.154;2023-02-28T01:50:40;15.93;;;6.25;;
70406;SDS011;57821;52.202;0.154;2023-02-28T01:53:12;13.30;;;5.13;;
70406;SDS011;57821;52.202;0.154;2023-02-28T01:55:45;17.60;;;6.07;;
70406;SDS011;57821;52.202;0.154;2023-02-28T01:58:15;15.57;;;5.38;;
70406;SDS011;57821;52.202;0.154;2023-02-28T02:00:42;13.20;;;5.50;;
70406;SDS011;57821;52.202;0.154;2023-02-28T02:03:11;17.80;;;5.72;;
70406;SDS011;57821;52.202;0.154;2023-02-28T02:05:42;20.23;;;5.88;;
70406;SDS011;57821;52.202;0.154;2023-02-28T02:08:11;15.85;;;5.53;;
70406;SDS011;57821;52.202;0.154;2023-02-28T02:10:54;10.50;;;4.43;;
70406;SDS011;57821;52.202;0.154;2023-02-28T02:18:51;19.13;;;5.85;;
70406;SDS011;57821;52.202;0.154;2023-02-28T02:24:13;18.40;;;5.50;;
70406;SDS011;57821;52.202;0.154;2023-02-28T02:27:20;17.73;;;6.10;;
70406;SDS011;57821;52.202;0.154;2023-02-28T02:29:54;14.13;;;5.47;;
70406;SDS011;57821;52.202;0.154;2023-02-28T02:40:20;12.93;;;5.38;;
70406;SDS011;57821;52.202;0.154;2023-02-28T02:42:53;11.00;;;5.05;;
70406;SDS011;57821;52.202;0.154;2023-02-28T02:45:28;17.13;;;6.63;;
70406;SDS011;57821;52.202;0.154;2023-02-28T02:47:59;12.43;;;5.70;;
70406;SDS011;57821;52.202;0.154;2023-02-28T02:50:39;20.20;;;5.88;;
70406;SDS011;57821;52.202;0.154;2023-02-28T02:53:10;13.80;;;5.63;;
70406;SDS011;57821;52.202;0.154;2023-02-28T02:55:40;16.73;;;6.15;;
70406;SDS011;57821;52.202;0.154;2023-02-28T02:58:13;17.80;;;6.82;;
70406;SDS011;57821;52.202;0.154;2023-02-28T03:00:44;15.23;;;5.80;;
70406;SDS011;57821;52.202;0.154;2023-02-28T03:03:16;14.55;;;6.05;;
70406;SDS011;57821;52.202;0.154;2023-02-28T03:05:46;18.17;;;6.90;;
70406;SDS011;57821;52.202;0.154;2023-02-28T03:08:14;14.13;;;6.13;;
70406;SDS011;57821;52.202;0.154;2023-02-28T03:10:43;17.52;;;7.28;;
70406;SDS011;57821;52.202;0.154;2023-02-28T03:27:04;36.42;;;9.82;;
70406;SDS011;57821;52.202;0.154;2023-02-28T03:29:37;46.78;;;9.77;;
70406;SDS011;57821;52.202;0.154;2023-02-28T03:32:14;75.65;;;11.35;;
70406;SDS011;57821;52.202;0.154;2023-02-28T03:34:50;70.30;;;11.52;;
70406;SDS011;57821;52.202;0.154;2023-02-28T03:37:24;29.58;;;9.80;;
70406;SDS011;57821;52.202;0.154;2023-02-28T03:39:59;37.47;;;10.40;;
70406;SDS011;57821;52.202;0.154;2023-02-28T03:42:31;38.00;;;10.25;;
70406;SDS011;57821;52.202;0.154;2023-02-28T03:45:10;35.67;;;9.45;;
70406;SDS011;57821;52.202;0.154;2023-02-28T03:47:53;32.60;;;9.73;;
70406;SDS011;57821;52.202;0.154;2023-02-28T03:50:26;29.30;;;9.30;;
70406;SDS011;57821;52.202;0.154;2023-02-28T03:55:33;26.10;;;9.15;;
70406;SDS011;57821;52.202;0.154;2023-02-28T03:58:12;28.90;;;8.25;;
70406;SDS011;57821;52.202;0.154;2023-02-28T04:00:46;22.67;;;8.90;;
70406;SDS011;57821;52.202;0.154;2023-02-28T04:03:16;19.58;;;8.10;;
70406;SDS011;57821;52.202;0.154;2023-02-28T04:05:53;18.50;;;7.38;;
70406;SDS011;57821;52.202;0.154;2023-02-28T04:08:21;21.23;;;7.53;;
70406;SDS011;57821;52.202;0.154;2023-02-28T04:10:50;16.52;;;6.90;;
70406;SDS011;57821;52.202;0.154;2023-02-28T04:13:23;15.43;;;6.65;;
70406;SDS011;57821;52.202;0.154;2023-02-28T04:15:50;16.88;;;6.63;;
70406;SDS011;57821;52.202;0.154;2023-02-28T04:18:16;16.98;;;6.07;;
70406;SDS011;57821;52.202;0.154;2023-02-28T04:20:43;17.00;;;5.75;;
70406;SDS011;57821;52.202;0.154;2023-02-28T04:23:10;15.90;;;5.97;;
70406;SDS011;57821;52.202;0.154;2023-02-28T04:25:36;12.55;;;5.20;;
70406;SDS011;57821;52.202;0.154;2023-02-28T04:28:03;16.23;;;5.72;;
70406;SDS011;57821;52.202;0.154;2023-02-28T04:30:29;12.45;;;5.68;;
70406;SDS011;57821;52.202;0.154;2023-02-28T04:32:56;18.48;;;5.07;;
70406;SDS011;57821;52.202;0.154;2023-02-28T04:35:23;11.32;;;4.93;;
70406;SDS011;57821;52.202;0.154;2023-02-28T04:37:50;14.65;;;5.75;;
70406;SDS011;57821;52.202;0.154;2023-02-28T04:40:16;13.38;;;5.50;;
70406;SDS011;57821;52.202;0.154;2023-02-28T04:42:43;15.45;;;4.85;;
70406;SDS011;57821;52.202;0.154;2023-02-28T04:45:09;11.35;;;4.47;;
70406;SDS011;57821;52.202;0.154;2023-02-28T04:47:36;13.25;;;4.82;;
70406;SDS011;57821;52.202;0.154;2023-02-28T04:50:03;13.32;;;5.68;;
70406;SDS011;57821;52.202;0.154;2023-02-28T04:52:30;14.80;;;5.63;;
70406;SDS011;57821;52.202;0.154;2023-02-28T04:54:56;13.48;;;5.57;;
70406;SDS011;57821;52.202;0.154;2023-02-28T04:57:23;13.10;;;5.65;;
70406;SDS011;57821;52.202;0.154;2023-02-28T04:59:49;12.43;;;5.75;;
70406;SDS011;57821;52.202;0.154;2023-02-28T05:02:19;14.98;;;6.10;;
70406;SDS011;57821;52.202;0.154;2023-02-28T05:04:45;12.75;;;6.20;;
70406;SDS011;57821;52.202;0.154;2023-02-28T05:07:12;11.70;;;5.72;;
70406;SDS011;57821;52.202;0.154;2023-02-28T05:09:39;13.38;;;6.65;;
70406;SDS011;57821;52.202;0.154;2023-02-28T05:12:06;15.48;;;7.05;;
70406;SDS011;57821;52.202;0.154;2023-02-28T05:14:32;14.98;;;6.60;;
70406;SDS011;57821;52.202;0.154;2023-02-28T05:16:59;15.32;;;6.53;;
70406;SDS011;57821;52.202;0.154;2023-02-28T05:19:25;14.68;;;6.65;;
70406;SDS011;57821;52.202;0.154;2023-02-28T05:21:53;15.38;;;7.38;;
70406;SDS011;57821;52.202;0.154;2023-02-28T05:24:21;15.73;;;6.63;;
70406;SDS011;57821;52.202;0.154;2023-02-28T05:26:49;15.52;;;7.45;;
70406;SDS011;57821;52.202;0.154;2023-02-28T05:29:17;19.15;;;7.25;;
70406;SDS011;57821;52.202;0.154;2023-02-28T05:31:43;13.35;;;6.97;;
70406;SDS011;57821;52.202;0.154;2023-02-28T05:34:10;16.10;;;7.57;;
70406;SDS011;57821;52.202;0.154;2023-02-28T05:36:37;12.45;;;6.50;;
70406;SDS011;57821;52.202;0.154;2023-02-28T05:39:04;11.85;;;6.07;;
70406;SDS011;57821;52.202;0.154;2023-02-28T05:41:32;17.35;;;7.05;;
70406;SDS011;57821;52.202;0.154;2023-02-28T05:43:58;13.63;;;6.63;;
70406;SDS011;57821;52.202;0.154;2023-02-28T05:46:25;13.45;;;6.60;;
70406;SDS011;57821;52.202;0.154;2023-02-28T05:48:52;15.23;;;6.75;;
70406;SDS011;57821;52.202;0.154;2023-02-28T05:51:18;15.82;;;7.55;;
70406;SDS011;57821;52.202;0.154;2023-02-28T05:53:45;16.98;;;7.65;;
70406;SDS011;57821;52.202;0.154;2023-02-28T05:56:11;14.07;;;6.88;;
70406;SDS011;57821;52.202;0.154;2023-02-28T05:58:38;15.45;;;8.05;;
70406;SDS011;57821;52.202;0.154;2023-02-28T06:04:00;15.05;;;7.25;;
70406;SDS011;57821;52.202;0.154;2023-02-28T06:06:26;16.55;;;8.10;;
70406;SDS011;57821;52.202;0.154;2023-02-28T06:08:54;14.38;;;7.32;;
70406;SDS011;57821;52.202;0.154;2023-02-28T06:11:20;17.02;;;8.07;;
70406;SDS011;57821;52.202;0.154;2023-02-28T06:13:47;16.15;;;7.72;;
70406;SDS011;57821;52.202;0.154;2023-02-28T06:16:13;16.15;;;8.35;;
70406;SDS011;57821;52.202;0.154;2023-02-28T06:18:40;15.60;;;7.10;;
70406;SDS011;57821;52.202;0.154;2023-02-28T06:21:07;13.95;;;6.90;;
70406;SDS011;57821;52.202;0.154;2023-02-28T06:23:33;15.27;;;7.22;;
70406;SDS011;57821;52.202;0.154;2023-02-28T06:26:00;16.00;;;7.65;;
70406;SDS011;57821;52.202;0.154;2023-02-28T06:28:27;16.65;;;7.03;;
70406;SDS011;57821;52.202;0.154;2023-02-28T06:30:53;13.00;;;7.50;;
70406;SDS011;57821;52.202;0.154;2023-02-28T06:33:20;15.38;;;7.35;;
70406;SDS011;57821;52.202;0.154;2023-02-28T06:35:47;16.13;;;7.32;;
70406;SDS011;57821;52.202;0.154;2023-02-28T06:38:17;15.35;;;9.02;;
70406;SDS011;57821;52.202;0.154;2023-02-28T06:40:44;17.13;;;7.35;;
70406;SDS011;57821;52.202;0.154;2023-02-28T06:43:18;16.73;;;8.32;;
70406;SDS011;57821;52.202;0.154;2023-02-28T06:45:45;13.75;;;7.32;;
70406;SDS011;57821;52.202;0.154;2023-02-28T06:48:11;13.48;;;7.22;;
70406;SDS011;57821;52.202;0.154;2023-02-28T06:50:38;14.13;;;7.40;;
70406;SDS011;57821;52.202;0.154;2023-02-28T06:53:05;16.58;;;7.50;;
70406;SDS011;57821;52.202;0.154;2023-02-28T06:55:31;14.73;;;6.90;;
70406;SDS011;57821;52.202;0.154;2023-02-28T06:57:58;14.35;;;7.05;;
70406;SDS011;57821;52.202;0.154;2023-02-28T07:00:24;16.75;;;7.72;;
70406;SDS011;57821;52.202;0.154;2023-02-28T07:02:51;17.73;;;7.75;;
70406;SDS011;57821;52.202;0.154;2023-02-28T07:05:18;29.90;;;8.43;;
70406;SDS011;57821;52.202;0.154;2023-02-28T07:07:44;17.48;;;7.35;;
70406;SDS011;57821;52.202;0.154;2023-02-28T07:10:11;18.05;;;8.18;;
70406;SDS011;57821;52.202;0.154;2023-02-28T07:12:38;15.00;;;7.25;;
70406;SDS011;57821;52.202;0.154;2023-02-28T07:15:04;17.98;;;8.57;;
70406;SDS011;57821;52.202;0.154;2023-02-28T07:17:32;15.90;;;8.55;;
70406;SDS011;57821;52.202;0.154;2023-02-28T07:19:58;16.80;;;8.20;;
70406;SDS011;57821;52.202;0.154;2023-02-28T07:22:25;16.90;;;8.55;;
70406;SDS011;57821;52.202;0.154;2023-02-28T07:24:51;16.23;;;8.40;;
70406;SDS011;57821;52.202;0.154;2023-02-28T07:27:18;19.25;;;8.20;;
70406;SDS011;57821;52.202;0.154;2023-02-28T07:29:44;14.93;;;7.13;;
70406;SDS011;57821;52.202;0.154;2023-02-28T07:32:11;16.98;;;7.05;;
70406;SDS011;57821;52.202;0.154;2023-02-28T07:34:38;13.43;;;7.22;;
70406;SDS011;57821;52.202;0.154;2023-02-28T07:37:04;13.70;;;6.80;;
70406;SDS011;57821;52.202;0.154;2023-02-28T07:39:31;11.70;;;5.47;;
70406;SDS011;57821;52.202;0.154;2023-02-28T07:41:57;11.73;;;5.20;;
70406;SDS011;57821;52.202;0.154;2023-02-28T07:44:25;11.98;;;5.07;;
70406;SDS011;57821;52.202;0.154;2023-02-28T07:46:52;10.18;;;4.50;;
70406;SDS011;57821;52.202;0.154;2023-02-28T07:49:19;10.07;;;4.10;;
70406;SDS011;57821;52.202;0.154;2023-02-28T07:51:45;10.20;;;3.97;;
70406;SDS011;57821;52.202;0.154;2023-02-28T07:54:12;9.40;;;4.10;;
70406;SDS011;57821;52.202;0.154;2023-02-28T07:56:38;10.32;;;3.38;;
70406;SDS011;57821;52.202;0.154;2023-02-28T07:59:05;6.57;;;2.80;;
70406;SDS011;57821;52.202;0.154;2023-02-28T08:01:32;8.95;;;3.22;;
70406;SDS011;57821;52.202;0.154;2023-02-28T08:03:58;8.95;;;3.92;;
70406;SDS011;57821;52.202;0.154;2023-02-28T08:06:25;8.02;;;4.40;;
70406;SDS011;57821;52.202;0.154;2023-02-28T08:08:55;12.77;;;4.03;;
70406;SDS011;57821;52.202;0.154;2023-02-28T08:11:24;8.57;;;3.92;;
70406;SDS011;57821;52.202;0.154;2023-02-28T08:13:50;7.90;;;3.42;;
70406;SDS011;57821;52.202;0.154;2023-02-28T08:16:17;10.07;;;3.42;;
70406;SDS011;57821;52.202;0.154;2023-02-28T08:18:44;8.95;;;3.35;;
70406;SDS011;57821;52.202;0.154;2023-02-28T08:21:11;8.30;;;3.25;;
70406;SDS011;57821;52.202;0.154;2023-02-28T08:23:37;7.50;;;2.92;;
70406;SDS011;57821;52.202;0.154;2023-02-28T08:26:04;10.57;;;3.22;;
70406;SDS011;57821;52.202;0.154;2023-02-28T08:28:31;10.65;;;2.78;;
70406;SDS011;57821;52.202;0.154;2023-02-28T08:30:58;12.02;;;3.10;;
70406;SDS011;57821;52.202;0.154;2023-02-28T08:33:25;9.35;;;2.90;;
70406;SDS011;57821;52.202;0.154;2023-02-28T08:35:54;8.32;;;2.67;;
70406;SDS011;57821;52.202;0.154;2023-02-28T08:38:22;8.05;;;2.88;;
70406;SDS011;57821;52.202;0.154;2023-02-28T08:40:49;7.50;;;4.28;;
70406;SDS011;57821;52.202;0.154;2023-02-28T08:43:16;10.48;;;4.82;;
70406;SDS011;57821;52.202;0.154;2023-02-28T08:45:43;8.45;;;4.97;;
70406;SDS011;57821;52.202;0.154;2023-02-28T08:48:09;10.45;;;4.85;;
70406;SDS011;57821;52.202;0.154;2023-02-28T08:50:36;11.65;;;4.82;;
70406;SDS011;57821;52.202;0.154;2023-02-28T08:53:03;10.27;;;4.45;;
70406;SDS011;57821;52.202;0.154;2023-02-28T08:55:30;7.18;;;3.92;;
70406;SDS011;57821;52.202;0.154;2023-02-28T08:57:57;7.28;;;3.78;;
70406;SDS011;57821;52.202;0.154;2023-02-28T09:00:23;10.38;;;3.90;;
70406;SDS011;57821;52.202;0.154;2023-02-28T09:02:50;9.68;;;3.75;;
70406;SDS011;57821;52.202;0.154;2023-02-28T09:05:16;8.80;;;4.60;;
70406;SDS011;57821;52.202;0.154;2023-02-28T09:07:43;14.15;;;4.47;;
70406;SDS011;57821;52.202;0.154;2023-02-28T09:10:10;8.23;;;4.38;;
70406;SDS011;57821;52.202;0.154;2023-02-28T09:12:37;10.73;;;3.97;;
70406;SDS011;57821;52.202;0.154;2023-02-28T09:15:04;10.90;;;4.45;;
70406;SDS011;57821;52.202;0.154;2023-02-28T09:17:31;9.32;;;4.50;;
70406;SDS011;57821;52.202;0.154;2023-02-28T09:19:57;7.50;;;4.03;;
70406;SDS011;57821;52.202;0.154;2023-02-28T09:22:24;10.25;;;4.75;;
70406;SDS011;57821;52.202;0.154;2023-02-28T09:24:50;12.50;;;5.13;;
70406;SDS011;57821;52.202;0.154;2023-02-28T09:27:17;14.15;;;5.57;;
70406;SDS011;57821;52.202;0.154;2023-02-28T09:29:43;14.82;;;6.68;;
70406;SDS011;57821;52.202;0.154;2023-02-28T09:32:10;12.07;;;5.55;;
70406;SDS011;57821;52.202;0.154;2023-02-28T09:34:37;12.90;;;6.63;;
70406;SDS011;57821;52.202;0.154;2023-02-28T09:37:04;9.73;;;4.80;;
70406;SDS011;57821;52.202;0.154;2023-02-28T09:39:30;13.90;;;6.45;;
70406;SDS011;57821;52.202;0.154;2023-02-28T09:41:57;13.93;;;5.75;;
70406;SDS011;57821;52.202;0.154;2023-02-28T09:47:05;16.50;;;7.60;;
70406;SDS011;57821;52.202;0.154;2023-02-28T09:49:43;13.27;;;6.38;;
70406;SDS011;57821;52.202;0.154;2023-02-28T09:52:14;31.23;;;13.45;;
70406;SDS011;57821;52.202;0.154;2023-02-28T09:54:45;9.85;;;5.00;;
70406;SDS011;57821;52.202;0.154;2023-02-28T10:05:20;17.20;;;7.82;;
70406;SDS011;57821;52.202;0.154;2023-02-28T10:07:57;11.38;;;4.95;;
70406;SDS011;57821;52.202;0.154;2023-02-28T10:10:30;17.23;;;7.93;;
70406;SDS011;57821;52.202;0.154;2023-02-28T10:13:56;15.10;;;6.72;;
70406;SDS011;57821;52.202;0.154;2023-02-28T10:16:23;15.15;;;7.95;;
70406;SDS011;57821;52.202;0.154;2023-02-28T10:22:00;14.32;;;7.32;;
70406;SDS011;57821;52.202;0.154;2023-02-28T10:24:35;14.50;;;6.50;;
70406;SDS011;57821;52.202;0.154;2023-02-28T10:27:14;14.98;;;7.32;;
70406;SDS011;57821;52.202;0.154;2023-02-28T10:29:49;11.70;;;5.32;;
70406;SDS011;57821;52.202;0.154;2023-02-28T10:32:27;11.52;;;4.50;;
70406;SDS011;57821;52.202;0.154;2023-02-28T10:34:57;9.07;;;4.72;;
70406;SDS011;57821;52.202;0.154;2023-02-28T10:37:27;7.65;;;3.28;;
70406;SDS011;57821;52.202;0.154;2023-02-28T10:39:54;7.03;;;2.55;;
70406;SDS011;57821;52.202;0.154;2023-02-28T10:42:25;8.85;;;2.75;;
70406;SDS011;57821;52.202;0.154;2023-02-28T10:47:58;4.90;;;2.10;;
70406;SDS011;57821;52.202;0.154;2023-02-28T11:01:16;5.22;;;1.58;;
70406;SDS011;57821;52.202;0.154;2023-02-28T11:04:01;5.15;;;1.67;;
70406;SDS011;57821;52.202;0.154;2023-02-28T11:06:29;5.35;;;1.30;;
70406;SDS011;57821;52.202;0.154;2023-02-28T11:08:59;6.07;;;1.33;;
70406;SDS011;57821;52.202;0.154;2023-02-28T11:11:29;6.72;;;1.80;;
70406;SDS011;57821;52.202;0.154;2023-02-28T11:14:15;3.85;;;1.00;;
70406;SDS011;57821;52.202;0.154;2023-02-28T11:16:54;3.70;;;1.10;;
70406;SDS011;57821;52.202;0.154;2023-02-28T11:19:26;6.45;;;1.30;;
70406;SDS011;57821;52.202;0.154;2023-02-28T11:21:57;4.68;;;1.92;;
70406;SDS011;57821;52.202;0.154;2023-02-28T11:26:54;7.40;;;1.30;;
70406;SDS011;57821;52.202;0.154;2023-02-28T11:29:23;5.85;;;1.40;;
70406;SDS011;57821;52.202;0.154;2023-02-28T11:34:47;5.20;;;1.15;;
70406;SDS011;57821;52.202;0.154;2023-02-28T11:37:27;5.72;;;0.90;;
70406;SDS011;57821;52.202;0.154;2023-02-28T11:39:55;2.65;;;0.60;;
70406;SDS011;57821;52.202;0.154;2023-02-28T11:47:48;1.30;;;0.35;;
70406;SDS011;57821;52.202;0.154;2023-02-28T11:55:56;4.10;;;0.75;;
70406;SDS011;57821;52.202;0.154;2023-02-28T12:01:23;2.92;;;0.80;;
70406;SDS011;57821;52.202;0.154;2023-02-28T12:04:10;3.08;;;0.80;;
70406;SDS011;57821;52.202;0.154;2023-02-28T12:07:02;4.57;;;0.80;;
70406;SDS011;57821;52.202;0.154;2023-02-28T12:09:39;5.38;;;0.80;;
70406;SDS011;57821;52.202;0.154;2023-02-28T12:21:01;4.30;;;1.00;;
70406;SDS011;57821;52.202;0.154;2023-02-28T12:26:36;2.80;;;0.50;;
70406;SDS011;57821;52.202;0.154;2023-02-28T12:32:09;3.15;;;0.50;;
70406;SDS011;57821;52.202;0.154;2023-02-28T12:34:44;2.90;;;0.55;;
70406;SDS011;57821;52.202;0.154;2023-02-28T12:37:29;2.15;;;0.40;;
70406;SDS011;57821;52.202;0.154;2023-02-28T12:40:01;5.72;;;0.55;;
70406;SDS011;57821;52.202;0.154;2023-02-28T12:42:32;3.17;;;0.70;;
70406;SDS011;57821;52.202;0.154;2023-02-28T12:48:08;4.53;;;1.00;;
70406;SDS011;57821;52.202;0.154;2023-02-28T12:53:09;7.03;;;2.15;;
70406;SDS011;57821;52.202;0.154;2023-02-28T12:58:36;5.55;;;1.10;;
70406;SDS011;57821;52.202;0.154;2023-02-28T13:01:29;3.08;;;0.80;;
70406;SDS011;57821;52.202;0.154;2023-02-28T13:04:12;2.90;;;0.80;;
70406;SDS011;57821;52.202;0.154;2023-02-28T13:09:25;3.80;;;0.90;;
70406;SDS011;57821;52.202;0.154;2023-02-28T13:11:52;5.28;;;0.70;;
70406;SDS011;57821;52.202;0.154;2023-02-28T13:19:41;2.95;;;0.85;;
70406;SDS011;57821;52.202;0.154;2023-02-28T13:24:52;5.38;;;1.00;;
70406;SDS011;57821;52.202;0.154;2023-02-28T13:27:21;3.80;;;1.08;;
70406;SDS011;57821;52.202;0.154;2023-02-28T13:30:49;4.68;;;1.00;;
70406;SDS011;57821;52.202;0.154;2023-02-28T13:35:48;2.58;;;0.70;;
70406;SDS011;57821;52.202;0.154;2023-02-28T13:38:43;4.22;;;0.52;;
70406;SDS011;57821;52.202;0.154;2023-02-28T13:49:31;3.65;;;0.60;;
70406;SDS011;57821;52.202;0.154;2023-02-28T13:54:49;4.97;;;0.70;;
70406;SDS011;57821;52.202;0.154;2023-02-28T14:05:32;4.90;;;0.60;;
70406;SDS011;57821;52.202;0.154;2023-02-28T14:10:49;4.60;;;0.70;;
70406;SDS011;57821;52.202;0.154;2023-02-28T14:13:42;7.53;;;0.90;;
70406;SDS011;57821;52.202;0.154;2023-02-28T14:16:15;4.97;;;0.70;;
70406;SDS011;57821;52.202;0.154;2023-02-28T14:19:05;3.97;;;0.70;;
70406;SDS011;57821;52.202;0.154;2023-02-28T14:21:50;2.75;;;0.70;;
70406;SDS011;57821;52.202;0.154;2023-02-28T14:27:40;4.45;;;0.90;;
70406;SDS011;57821;52.202;0.154;2023-02-28T14:33:34;2.28;;;0.60;;
70406;SDS011;57821;52.202;0.154;2023-02-28T14:38:47;8.50;;;0.80;;
70406;SDS011;57821;52.202;0.154;2023-02-28T14:41:42;2.22;;;0.60;;
70406;SDS011;57821;52.202;0.154;2023-02-28T14:44:15;7.57;;;0.80;;
70406;SDS011;57821;52.202;0.154;2023-02-28T14:47:02;2.58;;;0.77;;
70406;SDS011;57821;52.202;0.154;2023-02-28T14:49:31;3.70;;;0.88;;
70406;SDS011;57821;52.202;0.154;2023-02-28T14:54:52;4.45;;;0.80;;
70406;SDS011;57821;52.202;0.154;2023-02-28T15:00:01;5.05;;;0.75;;
70406;SDS011;57821;52.202;0.154;2023-02-28T15:02:36;3.95;;;0.80;;
70406;SDS011;57821;52.202;0.154;2023-02-28T15:07:40;2.35;;;0.82;;
70406;SDS011;57821;52.202;0.154;2023-02-28T15:10:11;5.28;;;1.40;;
70406;SDS011;57821;52.202;0.154;2023-02-28T15:12:55;3.95;;;1.80;;
70406;SDS011;57821;52.202;0.154;2023-02-28T15:15:24;6.53;;;2.10;;
70406;SDS011;57821;52.202;0.154;2023-02-28T15:21:17;3.53;;;1.70;;
70406;SDS011;57821;52.202;0.154;2023-02-28T15:26:46;6.75;;;1.08;;
70406;SDS011;57821;52.202;0.154;2023-02-28T15:29:22;2.75;;;0.60;;
70406;SDS011;57821;52.202;0.154;2023-02-28T15:31:51;6.13;;;0.70;;
70406;SDS011;57821;52.202;0.154;2023-02-28T15:37:26;2.90;;;0.60;;
70406;SDS011;57821;52.202;0.154;2023-02-28T15:39:53;5.95;;;1.40;;
70406;SDS011;57821;52.202;0.154;2023-02-28T15:42:22;6.78;;;1.48;;
70406;SDS011;57821;52.202;0.154;2023-02-28T15:52:21;3.42;;;0.95;;
70406;SDS011;57821;52.202;0.154;2023-02-28T15:54:54;2.60;;;0.90;;
70406;SDS011;57821;52.202;0.154;2023-02-28T15:57:21;3.72;;;1.25;;
70406;SDS011;57821;52.202;0.154;2023-02-28T15:59:52;4.70;;;0.98;;
70406;SDS011;57821;52.202;0.154;2023-02-28T16:02:25;4.55;;;0.60;;
70406;SDS011;57821;52.202;0.154;2023-02-28T16:07:37;2.40;;;0.65;;
70406;SDS011;57821;52.202;0.154;2023-02-28T16:10:06;2.50;;;0.43;;
70406;SDS011;57821;52.202;0.154;2023-02-28T16:12:36;2.55;;;0.55;;
70406;SDS011;57821;52.202;0.154;2023-02-28T16:15:19;4.20;;;1.25;;
70406;SDS011;57821;52.202;0.154;2023-02-28T16:17:48;2.05;;;0.60;;
70406;SDS011;57821;52.202;0.154;2023-02-28T16:20:17;2.55;;;0.60;;
70406;SDS011;57821;52.202;0.154;2023-02-28T16:22:46;5.40;;;0.77;;
70406;SDS011;57821;52.202;0.154;2023-02-28T16:25:16;2.40;;;0.60;;
70406;SDS011;57821;52.202;0.154;2023-02-28T16:27:50;2.80;;;0.90;;
70406;SDS011;57821;52.202;0.154;2023-02-28T16:30:21;2.60;;;0.77;;
70406;SDS011;57821;52.202;0.154;2023-02-28T16:32:50;2.17;;;0.55;;
70406;SDS011;57821;52.202;0.154;2023-02-28T16:35:20;2.80;;;1.00;;
70406;SDS011;57821;52.202;0.154;2023-02-28T16:37:51;2.05;;;0.50;;
70406;SDS011;57821;52.202;0.154;2023-02-28T16:40:20;1.70;;;0.40;;
70406;SDS011;57821;52.202;0.154;2023-02-28T16:42:50;3.20;;;0.40;;
70406;SDS011;57821;52.202;0.154;2023-02-28T16:45:23;1.38;;;0.30;;
70406;SDS011;57821;52.202;0.154;2023-02-28T16:47:52;1.88;;;0.40;;
70406;SDS011;57821;52.202;0.154;2023-02-28T16:50:21;2.28;;;0.55;;
70406;SDS011;57821;52.202;0.154;2023-02-28T16:52:50;2.53;;;0.60;;
70406;SDS011;57821;52.202;0.154;2023-02-28T16:55:21;2.55;;;0.80;;
70406;SDS011;57821;52.202;0.154;2023-02-28T16:57:56;2.72;;;0.60;;
70406;SDS011;57821;52.202;0.154;2023-02-28T17:00:26;2.72;;;0.60;;
70406;SDS011;57821;52.202;0.154;2023-02-28T17:02:54;2.85;;;0.50;;
70406;SDS011;57821;52.202;0.154;2023-02-28T17:05:22;3.28;;;0.60;;
70406;SDS011;57821;52.202;0.154;2023-02-28T17:07:50;3.95;;;0.75;;
70406;SDS011;57821;52.202;0.154;2023-02-28T17:10:19;4.80;;;1.10;;
70406;SDS011;57821;52.202;0.154;2023-02-28T17:12:46;3.40;;;0.80;;
70406;SDS011;57821;52.202;0.154;2023-02-28T17:15:14;5.50;;;2.30;;
70406;SDS011;57821;52.202;0.154;2023-02-28T17:17:43;5.35;;;1.85;;
70406;SDS011;57821;52.202;0.154;2023-02-28T17:22:43;5.60;;;1.33;;
70406;SDS011;57821;52.202;0.154;2023-02-28T17:25:10;5.95;;;0.82;;
70406;SDS011;57821;52.202;0.154;2023-02-28T17:27:38;3.08;;;0.80;;
70406;SDS011;57821;52.202;0.154;2023-02-28T17:30:26;6.38;;;1.65;;
70406;SDS011;57821;52.202;0.154;2023-02-28T17:32:53;13.27;;;4.07;;
70406;SDS011;57821;52.202;0.154;2023-02-28T17:35:21;7.40;;;1.95;;
70406;SDS011;57821;52.202;0.154;2023-02-28T17:37:48;5.72;;;1.80;;
70406;SDS011;57821;52.202;0.154;2023-02-28T17:40:16;5.63;;;1.80;;
70406;SDS011;57821;52.202;0.154;2023-02-28T17:42:45;7.30;;;1.98;;
70406;SDS011;57821;52.202;0.154;2023-02-28T17:45:13;5.60;;;2.03;;
70406;SDS011;57821;52.202;0.154;2023-02-28T17:47:41;7.10;;;2.60;;
70406;SDS011;57821;52.202;0.154;2023-02-28T17:50:12;5.65;;;2.30;;
70406;SDS011;57821;52.202;0.154;2023-02-28T17:52:42;6.43;;;2.67;;
70406;SDS011;57821;52.202;0.154;2023-02-28T17:55:09;5.53;;;2.10;;
70406;SDS011;57821;52.202;0.154;2023-02-28T17:57:36;5.85;;;2.00;;
70406;SDS011;57821;52.202;0.154;2023-02-28T18:00:03;5.75;;;2.40;;
70406;SDS011;57821;52.202;0.154;2023-02-28T18:02:36;5.57;;;1.50;;